Time;durP1;ratioP1;P1;durP2;ratioP2;P2;SDS_P1;SDS_P2;PMS_P1;PMS_P2;Temp;Humidity;BMP_temperature;BMP_pressure;BME280_temperature;BME280_humidity;BME280_pressure;Samples;Min_cycle;Max_cycle;Signal;HPM_P1;HPM_P2
2022/09/04 00:02:29;;;;;;;;;;;24.80;40.90;;;;;;5109104;28;19916;-61
2022/09/04 00:05:14;;;;;;;;;;;24.80;41.20;;;;;;5113565;28;19980;-60
2022/09/04 00:07:45;;;;;;;;;;;24.80;40.90;;;;;;5093917;28;19923;-61
2022/09/04 00:10:17;;;;;;;;;;;24.80;41.20;;;;;;5112854;28;20010;-61
2022/09/04 00:12:45;;;;;;;;;;;24.80;41.10;;;;;;5094832;28;19912;-61
2022/09/04 00:15:12;;;;;;;;;;;24.80;41.40;;;;;;5112944;28;19935;-61
2022/09/04 00:17:40;;;;;;;;;;;24.70;41.30;;;;;;5088123;28;19933;-61
2022/09/04 00:20:24;;;;;;;;;;;24.70;41.30;;;;;;5112923;28;20002;-61
2022/09/04 00:23:01;;;;;;;;;;;24.70;41.10;;;;;;5112536;28;19908;-61
2022/09/04 00:25:31;;;;;;;;;;;24.80;41.30;;;;;;5090841;28;19908;-60
2022/09/04 00:28:01;;;;;;;;;;;24.70;41.30;;;;;;5074448;28;20422;-61
2022/09/04 00:30:27;;;;;;;;;;;24.70;41.40;;;;;;5074485;28;19933;-61
2022/09/04 00:32:58;;;;;;;;;;;24.70;41.40;;;;;;5092435;28;19998;-61
2022/09/04 00:35:31;;;;;;;;;;;24.70;41.40;;;;;;5104719;28;20298;-61
2022/09/04 00:37:59;;;;;;;;;;;24.70;41.50;;;;;;5111947;28;19919;-61
2022/09/04 00:40:29;;;;;;;;;;;24.70;41.30;;;;;;5094652;28;19998;-61
2022/09/04 00:43:05;;;;;;;;;;;24.70;41.40;;;;;;5112711;28;20364;-61
2022/09/04 00:45:45;;;;;;;;;;;24.70;41.40;;;;;;5078129;28;19949;-61
2022/09/04 00:48:32;;;;;;;;;;;24.70;41.60;;;;;;5101255;28;19914;-60
2022/09/04 00:50:58;;;;;;;;;;;24.70;42.20;;;;;;5111435;28;19939;-61
2022/09/04 00:53:47;;;;;;;;;;;24.70;41.60;;;;;;5111881;28;19920;-61
2022/09/04 00:56:28;;;;;;;;;;;24.70;41.70;;;;;;5057103;28;19912;-60
2022/09/04 00:59:02;;;;;;;;;;;24.70;41.60;;;;;;5082990;28;19915;-60
2022/09/04 01:01:27;;;;;;;;;;;24.70;41.70;;;;;;5094477;28;20280;-61
2022/09/04 01:03:58;;;;;;;;;;;24.70;41.80;;;;;;5112486;28;19915;-61
2022/09/04 01:06:42;;;;;;;;;;;24.70;41.80;;;;;;5112005;28;20351;-60
2022/09/04 01:09:21;;;;;;;;;;;24.60;41.80;;;;;;5110743;28;19922;-61
2022/09/04 01:11:50;;;;;;;;;;;24.60;41.80;;;;;;5093486;28;19915;-61
2022/09/04 01:14:28;;;;;;;;;;;24.60;41.90;;;;;;5093974;28;19924;-60
2022/09/04 01:16:56;;;;;;;;;;;24.60;41.80;;;;;;5094153;28;19917;-61
2022/09/04 01:19:41;;;;;;;;;;;24.60;41.80;;;;;;5114625;28;20006;-61
2022/09/04 01:22:25;;;;;;;;;;;24.60;41.90;;;;;;5116015;28;19908;-61
2022/09/04 01:24:52;;;;;;;;;;;24.60;41.80;;;;;;5113784;28;19912;-61
2022/09/04 01:27:23;;;;;;;;;;;24.60;41.90;;;;;;5111712;28;19911;-61
2022/09/04 01:30:04;;;;;;;;;;;24.60;42.00;;;;;;5116360;28;19997;-61
2022/09/04 01:32:48;;;;;;;;;;;24.60;41.90;;;;;;5116487;28;20011;-61
2022/09/04 01:35:33;;;;;;;;;;;24.60;42.00;;;;;;5113903;28;19912;-61
2022/09/04 01:38:01;;;;;;;;;;;24.60;42.00;;;;;;5098908;28;20006;-61
2022/09/04 01:40:35;;;;;;;;;;;24.60;42.00;;;;;;5115799;28;19912;-61
2022/09/04 01:43:02;;;;;;;;;;;24.60;42.00;;;;;;5114432;28;19915;-61
2022/09/04 01:45:36;;;;;;;;;;;24.50;42.10;;;;;;5116072;28;19912;-60
2022/09/04 01:48:02;;;;;;;;;;;24.50;42.10;;;;;;5115914;28;20007;-60
2022/09/04 01:50:30;;;;;;;;;;;24.50;42.00;;;;;;5116016;28;19961;-61
2022/09/04 01:52:57;;;;;;;;;;;24.50;42.00;;;;;;5097712;28;19908;-61
2022/09/04 01:55:25;;;;;;;;;;;24.50;42.00;;;;;;5097452;28;19915;-61
2022/09/04 01:57:57;;;;;;;;;;;24.60;42.00;;;;;;5097677;28;19973;-61
2022/09/04 02:00:23;;;;;;;;;;;24.50;41.90;;;;;;5112610;28;19943;-61
2022/09/04 02:02:59;;;;;;;;;;;24.50;41.90;;;;;;5079867;28;20291;-61
2022/09/04 02:05:44;;;;;;;;;;;24.50;42.00;;;;;;5115700;28;19908;-61
2022/09/04 02:08:19;;;;;;;;;;;24.50;42.00;;;;;;5114086;28;19915;-61
2022/09/04 02:10:59;;;;;;;;;;;24.50;42.00;;;;;;5115272;28;19947;-61
2022/09/04 02:13:28;;;;;;;;;;;24.50;42.10;;;;;;5115588;28;19907;-61
2022/09/04 02:15:53;;;;;;;;;;;24.50;42.10;;;;;;5112443;28;19958;-61
2022/09/04 02:18:31;;;;;;;;;;;24.40;42.20;;;;;;5114991;28;19924;-62
2022/09/04 02:21:01;;;;;;;;;;;24.40;42.20;;;;;;5114932;28;20415;-61
2022/09/04 02:23:39;;;;;;;;;;;24.40;42.20;;;;;;5115505;28;19907;-61
2022/09/04 02:26:24;;;;;;;;;;;24.40;42.20;;;;;;5101398;28;19908;-61
2022/09/04 02:28:50;;;;;;;;;;;24.40;42.20;;;;;;5076702;28;19915;-61
2022/09/04 02:31:18;;;;;;;;;;;24.30;42.20;;;;;;5094547;28;20356;-61
2022/09/04 02:33:48;;;;;;;;;;;24.40;42.20;;;;;;5103306;28;19951;-62
2022/09/04 02:36:27;;;;;;;;;;;24.40;42.20;;;;;;5096474;28;19911;-61
2022/09/04 02:39:02;;;;;;;;;;;24.40;42.10;;;;;;5096136;28;20702;-61
2022/09/04 02:41:49;;;;;;;;;;;24.40;42.00;;;;;;5115040;28;20397;-61
2022/09/04 02:44:27;;;;;;;;;;;24.40;42.00;;;;;;5114879;28;20010;-61
2022/09/04 02:46:56;;;;;;;;;;;24.40;42.10;;;;;;5114863;28;20352;-61
2022/09/04 02:49:29;;;;;;;;;;;24.40;42.10;;;;;;5114773;28;20010;-61
2022/09/04 02:52:13;;;;;;;;;;;24.40;42.00;;;;;;5113205;28;19908;-61
2022/09/04 02:54:57;;;;;;;;;;;24.40;42.60;;;;;;5114397;28;19923;-61
2022/09/04 02:57:41;;;;;;;;;;;24.40;42.00;;;;;;5097242;28;20478;-61
2022/09/04 03:00:15;;;;;;;;;;;24.40;42.00;;;;;;5112177;28;19912;-61
2022/09/04 03:02:51;;;;;;;;;;;24.40;42.00;;;;;;5114649;28;19919;-61
2022/09/04 03:05:24;;;;;;;;;;;24.40;42.00;;;;;;5096237;28;20315;-61
2022/09/04 03:07:55;;;;;;;;;;;24.40;42.00;;;;;;5112721;28;20269;-61
2022/09/04 03:10:23;;;;;;;;;;;24.40;42.00;;;;;;5114061;28;19970;-61
2022/09/04 03:12:54;;;;;;;;;;;24.40;42.00;;;;;;5114355;28;19907;-61
2022/09/04 03:15:26;;;;;;;;;;;24.40;42.00;;;;;;5114258;28;19923;-61
2022/09/04 03:17:57;;;;;;;;;;;24.40;42.00;;;;;;5103122;28;20010;-61
2022/09/04 03:20:24;;;;;;;;;;;24.40;42.00;;;;;;5095959;28;19919;-61
2022/09/04 03:23:02;;;;;;;;;;;24.40;42.00;;;;;;5113809;28;20406;-61
2022/09/04 03:25:27;;;;;;;;;;;24.40;42.10;;;;;;5111685;27;19912;-61
2022/09/04 03:27:52;;;;;;;;;;;24.40;42.10;;;;;;5095719;28;20279;-61
2022/09/04 03:30:18;;;;;;;;;;;24.40;42.00;;;;;;5113963;28;20363;-61
2022/09/04 03:32:47;;;;;;;;;;;24.40;42.00;;;;;;5114213;28;19953;-61
2022/09/04 03:35:15;;;;;;;;;;;24.40;42.10;;;;;;5111867;28;20354;-61
2022/09/04 03:37:41;;;;;;;;;;;24.40;42.10;;;;;;5093905;28;19912;-61
2022/09/04 03:40:09;;;;;;;;;;;24.40;42.10;;;;;;5112947;28;19916;-61
2022/09/04 03:42:41;;;;;;;;;;;24.40;42.10;;;;;;5095297;28;19915;-61
2022/09/04 03:45:09;;;;;;;;;;;24.40;42.10;;;;;;5093194;28;19958;-61
2022/09/04 03:47:37;;;;;;;;;;;24.30;42.10;;;;;;5093351;28;19914;-60
2022/09/04 03:50:11;;;;;;;;;;;24.30;42.10;;;;;;5093459;28;20352;-61
2022/09/04 03:53:01;;;;;;;;;;;24.30;42.10;;;;;;5092875;28;19934;-61
2022/09/04 03:55:50;;;;;;;;;;;24.30;42.00;;;;;;5045977;28;19962;-61
2022/09/04 03:58:36;;;;;;;;;;;24.30;42.10;;;;;;5080900;28;19915;-61
2022/09/04 04:01:05;;;;;;;;;;;24.30;42.10;;;;;;5112351;28;19919;-61
2022/09/04 04:03:33;;;;;;;;;;;24.30;42.10;;;;;;5113728;28;19933;-61
2022/09/04 04:06:09;;;;;;;;;;;24.30;42.20;;;;;;5112921;28;19907;-61
2022/09/04 04:08:50;;;;;;;;;;;24.30;42.20;;;;;;5112978;28;20010;-61
2022/09/04 04:11:17;;;;;;;;;;;24.30;42.30;;;;;;5095283;28;19934;-61
2022/09/04 04:13:52;;;;;;;;;;;24.20;42.10;;;;;;5113450;28;20405;-61
2022/09/04 04:16:29;;;;;;;;;;;24.20;42.20;;;;;;5093894;28;19924;-61
2022/09/04 04:19:13;;;;;;;;;;;24.20;42.20;;;;;;5113092;28;19912;-61
2022/09/04 04:21:54;;;;;;;;;;;24.30;42.30;;;;;;5112724;28;19908;-61
2022/09/04 04:24:27;;;;;;;;;;;24.30;42.20;;;;;;5095398;28;20017;-61
2022/09/04 04:26:53;;;;;;;;;;;24.30;42.20;;;;;;5081794;28;20352;-61
2022/09/04 04:29:39;;;;;;;;;;;24.30;42.20;;;;;;5092564;28;19908;-61
2022/09/04 04:32:12;;;;;;;;;;;24.20;42.10;;;;;;5079850;28;20325;-61
2022/09/04 04:34:56;;;;;;;;;;;24.20;42.20;;;;;;5112871;28;20331;-61
2022/09/04 04:37:42;;;;;;;;;;;24.20;42.30;;;;;;5112464;28;20290;-61
2022/09/04 04:40:10;;;;;;;;;;;24.20;42.30;;;;;;5091999;28;19912;-61
2022/09/04 04:42:47;;;;;;;;;;;24.20;42.30;;;;;;5092352;28;19995;-61
2022/09/04 04:48:06;;;;;;;;;;;24.20;42.30;;;;;;5099174;28;19930;-61
2022/09/04 04:50:39;;;;;;;;;;;24.20;42.40;;;;;;5109117;28;19915;-61
2022/09/04 04:53:15;;;;;;;;;;;24.20;42.40;;;;;;5094419;28;19908;-61
2022/09/04 04:56:00;;;;;;;;;;;24.20;42.40;;;;;;5090768;28;20352;-61
2022/09/04 04:58:44;;;;;;;;;;;24.20;42.40;;;;;;5095042;28;20347;-61
2022/09/04 05:01:12;;;;;;;;;;;24.20;42.40;;;;;;5112425;28;19911;-61
2022/09/04 05:03:56;;;;;;;;;;;24.20;42.40;;;;;;5112548;28;20260;-61
2022/09/04 05:06:44;;;;;;;;;;;24.20;42.40;;;;;;5110821;28;19916;-61
2022/09/04 05:09:13;;;;;;;;;;;24.20;42.40;;;;;;5093581;28;20386;-61
2022/09/04 05:11:48;;;;;;;;;;;24.20;42.40;;;;;;5112466;28;19912;-61
2022/09/04 05:14:32;;;;;;;;;;;24.20;42.40;;;;;;5112142;28;19916;-61
2022/09/04 05:17:10;;;;;;;;;;;24.20;42.40;;;;;;5112457;28;20006;-61
2022/09/04 05:19:35;;;;;;;;;;;24.20;42.40;;;;;;5112351;28;19912;-61
2022/09/04 05:22:07;;;;;;;;;;;24.20;42.40;;;;;;5111991;28;19915;-61
2022/09/04 05:24:39;;;;;;;;;;;24.20;42.40;;;;;;5092826;28;19933;-61
2022/09/04 05:27:22;;;;;;;;;;;24.10;42.40;;;;;;5111339;28;19915;-61
2022/09/04 05:29:53;;;;;;;;;;;24.10;42.40;;;;;;5091924;28;20361;-61
2022/09/04 05:32:38;;;;;;;;;;;24.20;42.40;;;;;;5091874;28;19992;-61
2022/09/04 05:35:15;;;;;;;;;;;24.10;42.30;;;;;;5091775;28;19957;-61
2022/09/04 05:37:58;;;;;;;;;;;24.10;42.40;;;;;;5092499;28;19975;-61
2022/09/04 05:40:27;;;;;;;;;;;24.10;42.40;;;;;;5092000;28;20333;-61
2022/09/04 05:43:12;;;;;;;;;;;24.10;42.40;;;;;;5111458;28;19922;-61
2022/09/04 05:45:45;;;;;;;;;;;24.10;42.30;;;;;;5112172;28;19908;-61
2022/09/04 05:48:15;;;;;;;;;;;24.10;42.40;;;;;;5094036;28;19908;-60
2022/09/04 05:50:40;;;;;;;;;;;24.00;42.40;;;;;;5093870;28;19908;-61
2022/09/04 05:53:21;;;;;;;;;;;24.00;42.50;;;;;;5111605;28;19973;-61
2022/09/04 05:55:58;;;;;;;;;;;24.00;42.50;;;;;;5092354;28;20409;-61
2022/09/04 05:58:36;;;;;;;;;;;24.00;42.40;;;;;;5093365;28;20405;-61
2022/09/04 06:01:07;;;;;;;;;;;24.00;42.50;;;;;;5111845;28;19991;-61
2022/09/04 06:03:46;;;;;;;;;;;23.90;42.50;;;;;;5112377;28;19907;-61
2022/09/04 06:06:13;;;;;;;;;;;23.80;42.50;;;;;;5096730;28;20450;-61
2022/09/04 06:08:38;;;;;;;;;;;23.80;42.50;;;;;;5115342;28;19912;-61
2022/09/04 06:11:19;;;;;;;;;;;23.80;42.50;;;;;;5112709;28;19912;-61
2022/09/04 06:14:03;;;;;;;;;;;23.80;42.40;;;;;;5095308;28;19998;-61
2022/09/04 06:16:33;;;;;;;;;;;23.80;42.40;;;;;;5095057;28;19927;-61
2022/09/04 06:18:58;;;;;;;;;;;23.80;42.40;;;;;;5076841;28;19922;-61
2022/09/04 06:21:42;;;;;;;;;;;23.80;42.40;;;;;;5094675;28;19908;-61
2022/09/04 06:24:34;;;;;;;;;;;23.80;42.30;;;;;;5094725;28;19928;-61
2022/09/04 06:27:09;;;;;;;;;;;23.80;42.30;;;;;;5099822;28;19919;-61
2022/09/04 06:29:49;;;;;;;;;;;23.80;42.40;;;;;;5115157;28;19908;-61
2022/09/04 06:32:20;;;;;;;;;;;23.80;42.50;;;;;;5114428;28;19919;-61
2022/09/04 06:34:52;;;;;;;;;;;23.70;42.40;;;;;;5096858;28;19908;-61
2022/09/04 06:37:22;;;;;;;;;;;23.70;42.50;;;;;;5096366;28;19908;-61
2022/09/04 06:39:50;;;;;;;;;;;23.70;42.40;;;;;;5096031;28;19919;-61
2022/09/04 06:42:21;;;;;;;;;;;23.80;42.40;;;;;;5096991;28;20256;-61
2022/09/04 06:45:22;;;;;;;;;;;23.80;42.30;;;;;;5096004;28;20029;-61
2022/09/04 06:47:59;;;;;;;;;;;23.90;42.30;;;;;;5011563;28;20393;-61
2022/09/04 06:50:38;;;;;;;;;;;23.80;42.20;;;;;;5082726;28;19908;-61
2022/09/04 06:53:10;;;;;;;;;;;23.80;42.30;;;;;;5114640;28;20389;-61
2022/09/04 06:55:38;;;;;;;;;;;23.70;42.20;;;;;;5112210;28;19908;-62
2022/09/04 06:58:39;;;;;;;;;;;23.80;42.40;;;;;;5097053;28;19927;-61
2022/09/04 07:01:10;;;;;;;;;;;23.80;42.20;;;;;;5103160;28;20268;-61
2022/09/04 07:03:43;;;;;;;;;;;23.80;42.20;;;;;;5075931;28;19908;-61
2022/09/04 07:06:17;;;;;;;;;;;23.80;42.30;;;;;;5094737;28;20382;-61
2022/09/04 07:08:42;;;;;;;;;;;23.80;42.30;;;;;;5095705;28;19947;-61
2022/09/04 07:11:31;;;;;;;;;;;23.70;42.40;;;;;;5107964;28;20338;-61
2022/09/04 07:14:15;;;;;;;;;;;23.70;42.30;;;;;;5092552;28;19922;-61
2022/09/04 07:16:44;;;;;;;;;;;23.70;42.40;;;;;;5095073;28;20257;-61
2022/09/04 07:19:09;;;;;;;;;;;23.70;42.20;;;;;;5093452;28;19916;-61
2022/09/04 07:21:48;;;;;;;;;;;23.70;42.30;;;;;;5101225;28;20363;-61
2022/09/04 07:24:32;;;;;;;;;;;23.70;42.40;;;;;;5075447;28;20368;-61
2022/09/04 07:27:01;;;;;;;;;;;23.70;42.50;;;;;;5093971;28;19912;-60
2022/09/04 07:29:32;;;;;;;;;;;23.70;42.50;;;;;;5088145;28;19911;-61
2022/09/04 07:32:14;;;;;;;;;;;23.60;42.50;;;;;;5095892;28;20360;-61
2022/09/04 07:34:46;;;;;;;;;;;23.60;42.60;;;;;;5090545;28;19942;-61
2022/09/04 07:37:11;;;;;;;;;;;23.60;42.50;;;;;;5090283;28;20287;-61
2022/09/04 07:39:49;;;;;;;;;;;23.70;42.50;;;;;;5095645;28;19933;-60
2022/09/04 07:42:37;;;;;;;;;;;23.70;42.40;;;;;;5093336;28;19915;-60
2022/09/04 07:45:06;;;;;;;;;;;23.70;42.50;;;;;;5088733;28;19965;-60
2022/09/04 07:47:34;;;;;;;;;;;23.70;42.50;;;;;;5106932;28;19922;-61
2022/09/04 07:50:02;;;;;;;;;;;23.70;42.50;;;;;;5095829;28;19908;-60
2022/09/04 07:52:43;;;;;;;;;;;23.70;42.50;;;;;;5094991;28;19908;-60
2022/09/04 07:55:27;;;;;;;;;;;23.70;42.40;;;;;;5095033;28;20006;-60
2022/09/04 07:58:06;;;;;;;;;;;23.70;42.50;;;;;;5113601;28;19912;-60
2022/09/04 08:00:53;;;;;;;;;;;23.80;42.50;;;;;;5112368;28;19926;-61
2022/09/04 08:03:20;;;;;;;;;;;23.70;42.50;;;;;;5113516;28;19999;-60
2022/09/04 08:05:51;;;;;;;;;;;23.70;42.60;;;;;;5113359;28;19907;-60
2022/09/04 08:08:32;;;;;;;;;;;23.80;42.60;;;;;;5077728;28;20283;-60
2022/09/04 08:11:01;;;;;;;;;;;23.80;42.50;;;;;;5113065;28;19908;-60
2022/09/04 08:13:46;;;;;;;;;;;23.80;42.50;;;;;;5095440;28;19907;-60
2022/09/04 08:16:27;;;;;;;;;;;23.90;42.60;;;;;;5093896;28;19924;-60
2022/09/04 08:18:53;;;;;;;;;;;23.80;42.70;;;;;;5094868;28;19912;-59
2022/09/04 08:21:26;;;;;;;;;;;23.80;42.70;;;;;;5112971;28;19911;-60
2022/09/04 08:24:03;;;;;;;;;;;23.80;42.80;;;;;;5088082;28;20409;-59
2022/09/04 08:26:29;;;;;;;;;;;23.80;43.00;;;;;;5100544;28;20363;-60
2022/09/04 08:28:55;;;;;;;;;;;23.70;43.00;;;;;;5111860;28;19912;-60
2022/09/04 08:31:28;;;;;;;;;;;23.70;43.20;;;;;;5107922;28;20002;-60
2022/09/04 08:34:09;;;;;;;;;;;23.80;43.10;;;;;;5090747;28;19916;-63
2022/09/04 08:36:41;;;;;;;;;;;23.90;43.00;;;;;;5095958;28;20296;-59
2022/09/04 08:39:23;;;;;;;;;;;23.90;43.00;;;;;;5092836;28;19920;-59
2022/09/04 08:41:58;;;;;;;;;;;23.90;43.10;;;;;;5074573;28;19916;-59
2022/09/04 08:44:38;;;;;;;;;;;23.90;43.10;;;;;;5092510;28;19912;-63
2022/09/04 08:47:22;;;;;;;;;;;24.00;42.90;;;;;;5078723;28;19911;-59
2022/09/04 08:50:06;;;;;;;;;;;24.00;42.90;;;;;;5106527;28;20208;-60
2022/09/04 08:52:49;;;;;;;;;;;24.00;42.90;;;;;;5102641;28;19916;-59
2022/09/04 08:55:29;;;;;;;;;;;23.90;43.00;;;;;;5103551;28;20380;-59
2022/09/04 08:58:04;;;;;;;;;;;24.00;43.30;;;;;;5112687;28;19915;-60
2022/09/04 09:00:36;;;;;;;;;;;23.90;43.50;;;;;;5094765;28;20287;-59
2022/09/04 09:03:04;;;;;;;;;;;23.90;43.80;;;;;;5112538;28;19908;-60
2022/09/04 09:05:39;;;;;;;;;;;23.80;43.90;;;;;;5102831;28;19926;-60
2022/09/04 09:08:09;;;;;;;;;;;23.90;43.90;;;;;;5110696;28;20264;-59
2022/09/04 09:10:51;;;;;;;;;;;23.80;44.00;;;;;;5093215;28;19935;-60
2022/09/04 09:13:16;;;;;;;;;;;23.80;44.00;;;;;;5092340;28;19911;-60
2022/09/04 09:15:48;;;;;;;;;;;23.90;44.00;;;;;;5101498;28;19980;-59
2022/09/04 09:18:18;;;;;;;;;;;23.90;44.20;;;;;;5108490;28;20426;-60
2022/09/04 09:20:55;;;;;;;;;;;23.80;44.20;;;;;;5089401;28;19916;-59
2022/09/04 09:23:40;;;;;;;;;;;23.80;44.30;;;;;;5074130;28;19908;-60
2022/09/04 09:26:25;;;;;;;;;;;23.80;44.20;;;;;;5091735;28;19939;-59
2022/09/04 09:28:57;;;;;;;;;;;23.90;44.30;;;;;;5092219;28;19944;-60
2022/09/04 09:31:41;;;;;;;;;;;23.90;44.30;;;;;;5092711;28;19932;-60
2022/09/04 09:34:19;;;;;;;;;;;23.90;44.40;;;;;;5101401;28;19916;-60
2022/09/04 09:37:04;;;;;;;;;;;23.90;44.40;;;;;;5080342;28;20010;-60
2022/09/04 09:39:33;;;;;;;;;;;24.00;44.40;;;;;;5110363;28;19953;-60
2022/09/04 09:42:12;;;;;;;;;;;24.00;44.40;;;;;;5097697;28;19912;-60
2022/09/04 09:44:46;;;;;;;;;;;24.00;44.30;;;;;;5095745;28;19919;-60
2022/09/04 09:47:11;;;;;;;;;;;24.00;44.40;;;;;;5078356;28;20368;-60
2022/09/04 09:49:55;;;;;;;;;;;24.00;44.40;;;;;;5094415;28;19912;-59
2022/09/04 09:52:25;;;;;;;;;;;24.00;44.60;;;;;;5114191;28;20850;-60
2022/09/04 09:54:51;;;;;;;;;;;24.00;45.20;;;;;;5113846;27;20481;-60
2022/09/04 09:57:25;;;;;;;;;;;24.00;44.40;;;;;;5115032;28;19987;-60
2022/09/04 10:00:01;;;;;;;;;;;24.00;44.50;;;;;;5094801;28;20007;-60
2022/09/04 10:02:36;;;;;;;;;;;24.00;44.50;;;;;;5097125;28;20264;-59
2022/09/04 10:05:20;;;;;;;;;;;24.00;44.50;;;;;;5114871;28;19916;-59
2022/09/04 10:07:52;;;;;;;;;;;24.10;44.40;;;;;;5113565;28;20299;-59
2022/09/04 10:10:36;;;;;;;;;;;24.10;44.40;;;;;;5112638;28;19980;-60
2022/09/04 10:13:20;;;;;;;;;;;24.10;44.30;;;;;;5102370;28;19916;-60
2022/09/04 10:15:51;;;;;;;;;;;24.20;44.30;;;;;;5079385;28;20319;-60
2022/09/04 10:18:35;;;;;;;;;;;24.20;44.20;;;;;;5074581;28;19947;-60
2022/09/04 10:21:19;;;;;;;;;;;24.20;44.30;;;;;;5073953;28;20578;-59
2022/09/04 10:23:55;;;;;;;;;;;24.10;44.40;;;;;;5092022;28;19916;-59
2022/09/04 10:26:24;;;;;;;;;;;24.20;44.30;;;;;;5077678;28;19920;-60
2022/09/04 10:28:55;;;;;;;;;;;24.20;44.10;;;;;;5058744;28;19912;-60
2022/09/04 10:31:30;;;;;;;;;;;24.30;44.10;;;;;;5095110;28;19916;-60
2022/09/04 10:34:02;;;;;;;;;;;24.30;44.10;;;;;;5094698;28;19908;-60
2022/09/04 10:36:46;;;;;;;;;;;24.40;44.00;;;;;;5075382;28;19982;-60
2022/09/04 10:42:17;;;;;;;;;;;24.40;44.00;;;;;;5077475;28;19919;-59
2022/09/04 10:44:43;;;;;;;;;;;24.40;43.90;;;;;;5072533;28;19956;-60
2022/09/04 10:47:23;;;;;;;;;;;24.40;43.80;;;;;;5086662;28;20384;-60
2022/09/04 10:50:09;;;;;;;;;;;24.40;43.80;;;;;;5077850;28;19948;-60
2022/09/04 10:52:39;;;;;;;;;;;24.50;43.80;;;;;;5089905;28;19912;-60
2022/09/04 10:55:26;;;;;;;;;;;24.50;43.50;;;;;;5074714;28;19912;-60
2022/09/04 10:58:00;;;;;;;;;;;24.50;43.40;;;;;;5088169;28;19912;-58
2022/09/04 11:00:30;;;;;;;;;;;24.60;43.70;;;;;;5064163;28;19969;-60
2022/09/04 11:03:02;;;;;;;;;;;24.50;43.60;;;;;;5091700;28;20114;-59
2022/09/04 11:05:33;;;;;;;;;;;24.50;43.50;;;;;;5091664;28;19920;-60
2022/09/04 11:08:05;;;;;;;;;;;24.60;43.50;;;;;;5075838;28;19998;-60
2022/09/04 11:10:39;;;;;;;;;;;24.60;43.60;;;;;;5094069;28;19908;-60
2022/09/04 11:13:24;;;;;;;;;;;24.60;43.30;;;;;;5072441;28;19919;-60
2022/09/04 11:16:01;;;;;;;;;;;24.70;43.40;;;;;;5093597;28;19948;-60
2022/09/04 11:18:45;;;;;;;;;;;24.70;43.30;;;;;;5078618;28;19933;-59
2022/09/04 11:21:29;;;;;;;;;;;24.70;43.00;;;;;;5094419;28;19986;-59
2022/09/04 11:24:04;;;;;;;;;;;24.70;43.10;;;;;;5093581;28;19909;-60
2022/09/04 11:27:06;;;;;;;;;;;24.70;43.20;;;;;;5099591;28;20395;-60
2022/09/04 11:29:40;;;;;;;;;;;24.70;43.00;;;;;;5004653;28;20008;-59
2022/09/04 11:32:24;;;;;;;;;;;24.70;43.00;;;;;;5063818;28;20416;-60
2022/09/04 11:35:12;;;;;;;;;;;24.80;43.00;;;;;;5098077;28;20291;-60
2022/09/04 11:37:54;;;;;;;;;;;24.80;43.00;;;;;;5091649;28;19951;-60
2022/09/04 11:40:28;;;;;;;;;;;24.80;43.00;;;;;;5095212;28;19923;-59
2022/09/04 11:42:54;;;;;;;;;;;24.80;43.00;;;;;;5113605;28;19922;-60
2022/09/04 11:45:37;;;;;;;;;;;24.80;43.10;;;;;;5108152;28;20287;-59
2022/09/04 11:48:13;;;;;;;;;;;24.70;43.20;;;;;;5093467;28;19916;-59
2022/09/04 11:51:00;;;;;;;;;;;24.70;43.40;;;;;;5075439;28;20480;-60
2022/09/04 11:53:45;;;;;;;;;;;24.70;43.40;;;;;;5093249;28;19914;-60
2022/09/04 11:56:24;;;;;;;;;;;24.70;43.20;;;;;;5089437;28;20012;-60
2022/09/04 11:58:52;;;;;;;;;;;24.70;43.20;;;;;;5075157;28;19916;-59
2022/09/04 12:01:21;;;;;;;;;;;24.80;43.10;;;;;;5105464;28;20375;-60
2022/09/04 12:03:48;;;;;;;;;;;24.80;43.20;;;;;;5110710;28;19912;-60
2022/09/04 12:06:18;;;;;;;;;;;24.90;43.10;;;;;;5108755;28;20003;-60
2022/09/04 12:08:44;;;;;;;;;;;24.90;43.10;;;;;;5090399;28;19915;-60
2022/09/04 12:11:13;;;;;;;;;;;24.90;42.90;;;;;;5108577;28;19919;-60
2022/09/04 12:14:01;;;;;;;;;;;25.00;42.80;;;;;;5085700;28;19916;-59
2022/09/04 12:16:46;;;;;;;;;;;25.00;42.80;;;;;;5085406;28;19970;-60
2022/09/04 12:19:18;;;;;;;;;;;25.00;42.90;;;;;;5087914;28;19912;-60
2022/09/04 12:21:52;;;;;;;;;;;25.00;42.90;;;;;;5092497;28;19981;-60
2022/09/04 12:24:25;;;;;;;;;;;25.10;42.90;;;;;;5073595;28;19999;-59
2022/09/04 12:26:58;;;;;;;;;;;25.10;42.80;;;;;;5074456;28;20007;-59
2022/09/04 12:29:28;;;;;;;;;;;25.10;42.80;;;;;;5067746;28;19916;-59
2022/09/04 12:32:12;;;;;;;;;;;25.10;42.80;;;;;;5070221;28;19963;-59
2022/09/04 12:34:40;;;;;;;;;;;25.10;42.80;;;;;;5088089;28;20002;-59
2022/09/04 12:37:05;;;;;;;;;;;25.10;42.70;;;;;;5088668;28;19923;-60
2022/09/04 12:39:50;;;;;;;;;;;25.20;42.70;;;;;;5074794;28;19917;-60
2022/09/04 12:42:30;;;;;;;;;;;25.20;42.80;;;;;;5079511;28;19908;-59
2022/09/04 12:45:00;;;;;;;;;;;25.20;42.60;;;;;;5060422;28;19919;-59
2022/09/04 12:47:35;;;;;;;;;;;25.20;42.40;;;;;;5068439;28;19908;-60
2022/09/04 12:50:04;;;;;;;;;;;25.30;42.40;;;;;;5083988;28;20002;-60
2022/09/04 12:52:30;;;;;;;;;;;25.20;42.40;;;;;;5074654;28;19932;-59
2022/09/04 12:55:14;;;;;;;;;;;25.30;42.50;;;;;;5088863;28;19908;-60
2022/09/04 12:57:59;;;;;;;;;;;25.30;42.40;;;;;;5064108;28;19912;-59
2022/09/04 13:00:27;;;;;;;;;;;25.30;42.30;;;;;;5085044;28;19912;-60
2022/09/04 13:03:22;;;;;;;;;;;25.30;42.20;;;;;;5082177;28;20003;-60
2022/09/04 13:05:50;;;;;;;;;;;25.30;42.20;;;;;;5066896;28;19923;-60
2022/09/04 13:08:34;;;;;;;;;;;25.30;42.00;;;;;;5085589;28;19912;-60
2022/09/04 13:11:00;;;;;;;;;;;25.30;41.90;;;;;;5071344;28;19909;-60
2022/09/04 13:13:30;;;;;;;;;;;25.30;41.80;;;;;;5080862;28;19954;-60
2022/09/04 13:16:04;;;;;;;;;;;25.30;41.80;;;;;;5060149;28;19928;-60
2022/09/04 13:18:43;;;;;;;;;;;25.40;41.80;;;;;;5076042;28;20381;-59
2022/09/04 13:21:14;;;;;;;;;;;25.40;41.70;;;;;;5057654;28;19924;-60
2022/09/04 13:23:58;;;;;;;;;;;25.40;41.60;;;;;;5061885;28;19961;-60
2022/09/04 13:26:33;;;;;;;;;;;25.40;41.60;;;;;;5093044;28;20008;-60
2022/09/04 13:29:01;;;;;;;;;;;25.40;41.60;;;;;;5089935;28;19916;-60
2022/09/04 13:31:32;;;;;;;;;;;25.50;41.60;;;;;;5095968;28;19908;-60
2022/09/04 13:34:16;;;;;;;;;;;25.50;41.60;;;;;;5095962;28;19916;-60
2022/09/04 13:36:53;;;;;;;;;;;25.40;41.50;;;;;;5086249;28;19972;-59
2022/09/04 13:39:31;;;;;;;;;;;25.50;41.40;;;;;;5065817;28;19920;-60
2022/09/04 13:41:59;;;;;;;;;;;25.50;41.50;;;;;;5081708;28;19917;-60
2022/09/04 13:44:39;;;;;;;;;;;25.50;41.30;;;;;;5078056;28;19916;-60
2022/09/04 13:47:11;;;;;;;;;;;25.50;41.40;;;;;;5075386;28;19999;-59
2022/09/04 13:49:36;;;;;;;;;;;25.50;41.40;;;;;;5075418;28;19961;-60
2022/09/04 13:52:09;;;;;;;;;;;25.50;41.30;;;;;;5088554;28;19916;-60
2022/09/04 13:54:39;;;;;;;;;;;25.60;41.40;;;;;;5092974;28;19912;-60
2022/09/04 13:57:06;;;;;;;;;;;25.60;41.10;;;;;;5094965;28;20355;-60
2022/09/04 13:59:32;;;;;;;;;;;25.60;41.00;;;;;;5095199;28;19918;-60
2022/09/04 14:01:59;;;;;;;;;;;25.60;40.90;;;;;;5094475;28;20007;-60
2022/09/04 14:04:29;;;;;;;;;;;25.60;41.00;;;;;;5076712;28;19938;-60
2022/09/04 14:07:05;;;;;;;;;;;25.60;41.00;;;;;;5095013;28;19950;-60
2022/09/04 14:09:31;;;;;;;;;;;25.60;41.00;;;;;;5068968;28;19962;-60
2022/09/04 14:12:02;;;;;;;;;;;25.60;41.00;;;;;;5082303;28;19961;-60
2022/09/04 14:14:36;;;;;;;;;;;25.60;40.90;;;;;;5060781;28;19960;-60
2022/09/04 14:17:04;;;;;;;;;;;25.70;41.00;;;;;;5110764;28;20329;-60
2022/09/04 14:19:35;;;;;;;;;;;25.70;41.20;;;;;;5094113;28;20177;-60
2022/09/04 14:22:07;;;;;;;;;;;25.70;40.80;;;;;;5093560;28;20426;-60
2022/09/04 14:24:33;;;;;;;;;;;25.70;40.90;;;;;;5093401;28;19931;-60
2022/09/04 14:27:07;;;;;;;;;;;25.70;40.80;;;;;;5094221;28;19919;-60
2022/09/04 14:29:43;;;;;;;;;;;25.70;40.90;;;;;;5095162;28;19935;-59
2022/09/04 14:32:17;;;;;;;;;;;25.70;40.80;;;;;;5093223;28;19927;-60
2022/09/04 14:35:01;;;;;;;;;;;25.70;40.70;;;;;;5105888;28;19913;-60
2022/09/04 14:37:34;;;;;;;;;;;25.70;40.80;;;;;;5074263;28;19908;-60
2022/09/04 14:40:02;;;;;;;;;;;25.70;40.60;;;;;;5094105;28;19912;-60
2022/09/04 14:42:30;;;;;;;;;;;25.80;40.70;;;;;;5094811;28;20352;-60
2022/09/04 14:44:56;;;;;;;;;;;25.80;40.60;;;;;;5094413;28;19915;-60
2022/09/04 14:47:35;;;;;;;;;;;25.80;40.60;;;;;;5110044;28;20360;-60
2022/09/04 14:50:01;;;;;;;;;;;25.80;40.60;;;;;;5114809;27;20342;-60
2022/09/04 14:52:27;;;;;;;;;;;25.80;40.50;;;;;;5094027;28;19915;-60
2022/09/04 14:54:53;;;;;;;;;;;25.80;40.50;;;;;;5109813;28;19912;-60
2022/09/04 14:57:19;;;;;;;;;;;25.80;40.50;;;;;;5110143;28;19912;-60
2022/09/04 15:00:05;;;;;;;;;;;25.70;40.60;;;;;;5094625;28;20279;-60
2022/09/04 15:02:33;;;;;;;;;;;25.70;40.60;;;;;;5083091;28;19919;-60
2022/09/04 15:04:58;;;;;;;;;;;25.80;40.60;;;;;;5094437;28;20379;-60
2022/09/04 15:07:23;;;;;;;;;;;25.80;40.60;;;;;;5093040;28;19908;-60